sensor_id;sensor_type;location;lat;lon;timestamp;temperature;humidity
38183;DHT22;23991;52.430;10.586;2023-04-07T00:11:27;7.50;50.40
38183;DHT22;23991;52.430;10.586;2023-04-07T02:55:38;5.90;55.10
38183;DHT22;23991;52.430;10.586;2023-04-07T04:49:32;4.70;57.60
38183;DHT22;23991;52.430;10.586;2023-04-07T05:11:56;4.90;57.00
38183;DHT22;23991;52.430;10.586;2023-04-07T05:14:22;4.90;56.60
38183;DHT22;23991;52.430;10.586;2023-04-07T05:16:48;4.90;56.40
38183;DHT22;23991;52.430;10.586;2023-04-07T05:19:17;5.00;56.30
38183;DHT22;23991;52.430;10.586;2023-04-07T05:21:43;5.00;56.20
38183;DHT22;23991;52.430;10.586;2023-04-07T05:24:11;5.00;56.40
38183;DHT22;23991;52.430;10.586;2023-04-07T05:26:39;5.00;56.30
38183;DHT22;23991;52.430;10.586;2023-04-07T05:29:08;5.10;56.10
38183;DHT22;23991;52.430;10.586;2023-04-07T05:31:33;5.20;56.00
38183;DHT22;23991;52.430;10.586;2023-04-07T05:34:02;5.30;55.90
38183;DHT22;23991;52.430;10.586;2023-04-07T05:36:28;5.30;56.00
38183;DHT22;23991;52.430;10.586;2023-04-07T05:39:14;5.40;55.60
38183;DHT22;23991;52.430;10.586;2023-04-07T05:41:44;5.40;55.30
38183;DHT22;23991;52.430;10.586;2023-04-07T05:44:09;5.40;55.10
38183;DHT22;23991;52.430;10.586;2023-04-07T05:46:35;5.50;55.10
38183;DHT22;23991;52.430;10.586;2023-04-07T05:49:00;5.60;55.00
38183;DHT22;23991;52.430;10.586;2023-04-07T05:51:26;5.60;54.80
38183;DHT22;23991;52.430;10.586;2023-04-07T05:54:00;5.80;54.70
38183;DHT22;23991;52.430;10.586;2023-04-07T05:56:29;5.90;54.70
38183;DHT22;23991;52.430;10.586;2023-04-07T05:58:58;5.90;53.90
38183;DHT22;23991;52.430;10.586;2023-04-07T06:01:25;6.10;53.70
38183;DHT22;23991;52.430;10.586;2023-04-07T06:04:02;6.20;53.10
38183;DHT22;23991;52.430;10.586;2023-04-07T07:54:17;15.30;32.50
38183;DHT22;23991;52.430;10.586;2023-04-07T09:01:08;20.80;24.30
38183;DHT22;23991;52.430;10.586;2023-04-07T09:03:34;21.30;24.10
38183;DHT22;23991;52.430;10.586;2023-04-07T09:06:04;21.30;23.90
38183;DHT22;23991;52.430;10.586;2023-04-07T09:08:35;21.80;24.50
38183;DHT22;23991;52.430;10.586;2023-04-07T09:11:01;22.20;23.30
38183;DHT22;23991;52.430;10.586;2023-04-07T09:20:11;23.20;22.30
38183;DHT22;23991;52.430;10.586;2023-04-07T09:22:42;23.10;22.80
38183;DHT22;23991;52.430;10.586;2023-04-07T09:28:02;23.10;22.50
38183;DHT22;23991;52.430;10.586;2023-04-07T09:30:30;23.90;21.90
38183;DHT22;23991;52.430;10.586;2023-04-07T09:32:56;23.80;22.00
38183;DHT22;23991;52.430;10.586;2023-04-07T09:35:23;24.30;21.50
38183;DHT22;23991;52.430;10.586;2023-04-07T09:38:08;24.90;20.70
38183;DHT22;23991;52.430;10.586;2023-04-07T09:40:34;24.50;20.70
38183;DHT22;23991;52.430;10.586;2023-04-07T09:43:03;24.30;21.00
38183;DHT22;23991;52.430;10.586;2023-04-07T09:45:30;24.40;20.60
38183;DHT22;23991;52.430;10.586;2023-04-07T09:48:04;24.80;20.10
38183;DHT22;23991;52.430;10.586;2023-04-07T09:50:32;25.20;20.40
38183;DHT22;23991;52.430;10.586;2023-04-07T09:53:02;25.20;20.20
38183;DHT22;23991;52.430;10.586;2023-04-07T09:55:34;25.80;19.60
38183;DHT22;23991;52.430;10.586;2023-04-07T10:01:43;25.80;18.70
38183;DHT22;23991;52.430;10.586;2023-04-07T10:04:12;25.80;18.50
38183;DHT22;23991;52.430;10.586;2023-04-07T10:06:38;25.70;18.50
38183;DHT22;23991;52.430;10.586;2023-04-07T10:09:07;25.70;18.70
38183;DHT22;23991;52.430;10.586;2023-04-07T10:11:35;26.10;18.30
38183;DHT22;23991;52.430;10.586;2023-04-07T10:14:02;25.80;18.50
38183;DHT22;23991;52.430;10.586;2023-04-07T10:16:29;26.40;18.10
38183;DHT22;23991;52.430;10.586;2023-04-07T10:42:05;27.40;17.70
38183;DHT22;23991;52.430;10.586;2023-04-07T10:47:06;28.00;17.40
38183;DHT22;23991;52.430;10.586;2023-04-07T10:49:33;28.30;16.70
38183;DHT22;23991;52.430;10.586;2023-04-07T10:54:38;28.40;17.00
38183;DHT22;23991;52.430;10.586;2023-04-07T10:57:12;28.80;16.70
38183;DHT22;23991;52.430;10.586;2023-04-07T11:00:24;28.80;16.20
38183;DHT22;23991;52.430;10.586;2023-04-07T11:05:00;29.10;16.00
38183;DHT22;23991;52.430;10.586;2023-04-07T11:07:43;29.10;16.20
38183;DHT22;23991;52.430;10.586;2023-04-07T11:10:15;28.90;16.40
38183;DHT22;23991;52.430;10.586;2023-04-07T11:12:43;29.10;16.10
38183;DHT22;23991;52.430;10.586;2023-04-07T11:15:19;29.20;15.70
38183;DHT22;23991;52.430;10.586;2023-04-07T11:17:46;29.10;15.80
38183;DHT22;23991;52.430;10.586;2023-04-07T11:20:48;28.80;16.20
38183;DHT22;23991;52.430;10.586;2023-04-07T11:23:17;29.80;15.60
38183;DHT22;23991;52.430;10.586;2023-04-07T11:25:45;29.40;15.80
38183;DHT22;23991;52.430;10.586;2023-04-07T11:28:11;29.50;15.70
38183;DHT22;23991;52.430;10.586;2023-04-07T11:30:38;30.10;15.20
38183;DHT22;23991;52.430;10.586;2023-04-07T11:33:04;30.00;15.40
38183;DHT22;23991;52.430;10.586;2023-04-07T11:35:30;30.10;15.10
38183;DHT22;23991;52.430;10.586;2023-04-07T11:38:02;30.30;14.50
38183;DHT22;23991;52.430;10.586;2023-04-07T11:40:35;30.10;15.10
38183;DHT22;23991;52.430;10.586;2023-04-07T11:43:14;30.20;15.30
38183;DHT22;23991;52.430;10.586;2023-04-07T11:45:43;30.50;15.30
38183;DHT22;23991;52.430;10.586;2023-04-07T11:48:29;30.70;15.00
38183;DHT22;23991;52.430;10.586;2023-04-07T11:50:55;30.40;15.00
38183;DHT22;23991;52.430;10.586;2023-04-07T11:53:28;30.10;15.20
38183;DHT22;23991;52.430;10.586;2023-04-07T11:56:08;30.00;15.50
38183;DHT22;23991;52.430;10.586;2023-04-07T11:58:35;29.70;15.90
38183;DHT22;23991;52.430;10.586;2023-04-07T12:01:03;30.10;15.50
38183;DHT22;23991;52.430;10.586;2023-04-07T12:03:34;30.50;15.40
38183;DHT22;23991;52.430;10.586;2023-04-07T12:06:03;30.40;14.90
38183;DHT22;23991;52.430;10.586;2023-04-07T12:08:45;30.60;14.70
38183;DHT22;23991;52.430;10.586;2023-04-07T12:11:10;30.20;14.80
38183;DHT22;23991;52.430;10.586;2023-04-07T12:13:37;30.50;14.90
38183;DHT22;23991;52.430;10.586;2023-04-07T12:16:02;30.60;14.90
38183;DHT22;23991;52.430;10.586;2023-04-07T12:18:28;30.40;14.90
38183;DHT22;23991;52.430;10.586;2023-04-07T12:20:54;29.70;15.20
38183;DHT22;23991;52.430;10.586;2023-04-07T12:23:21;29.70;15.30
38183;DHT22;23991;52.430;10.586;2023-04-07T12:25:47;30.10;15.40
38183;DHT22;23991;52.430;10.586;2023-04-07T12:28:15;29.80;15.70
38183;DHT22;23991;52.430;10.586;2023-04-07T12:30:40;30.00;16.00
38183;DHT22;23991;52.430;10.586;2023-04-07T12:33:06;30.10;15.50
38183;DHT22;23991;52.430;10.586;2023-04-07T12:35:35;30.40;15.40
38183;DHT22;23991;52.430;10.586;2023-04-07T12:38:01;30.70;15.80
38183;DHT22;23991;52.430;10.586;2023-04-07T12:40:33;30.30;15.00
38183;DHT22;23991;52.430;10.586;2023-04-07T12:50:14;30.80;15.50
38183;DHT22;23991;52.430;10.586;2023-04-07T12:52:44;30.00;15.20
38183;DHT22;23991;52.430;10.586;2023-04-07T12:55:13;30.10;15.50
38183;DHT22;23991;52.430;10.586;2023-04-07T12:57:44;30.40;15.20
38183;DHT22;23991;52.430;10.586;2023-04-07T13:00:11;30.40;15.10
38183;DHT22;23991;52.430;10.586;2023-04-07T13:02:36;30.20;15.20
38183;DHT22;23991;52.430;10.586;2023-04-07T13:05:06;30.20;15.50
38183;DHT22;23991;52.430;10.586;2023-04-07T13:07:32;30.30;15.40
38183;DHT22;23991;52.430;10.586;2023-04-07T13:14:06;29.50;15.20
38183;DHT22;23991;52.430;10.586;2023-04-07T13:24:25;29.80;16.00
38183;DHT22;23991;52.430;10.586;2023-04-07T14:05:14;28.50;16.90
38183;DHT22;23991;52.430;10.586;2023-04-07T14:08:53;28.40;17.00
38183;DHT22;23991;52.430;10.586;2023-04-07T14:16:43;28.70;16.60
38183;DHT22;23991;52.430;10.586;2023-04-07T14:26:51;28.20;16.80
38183;DHT22;23991;52.430;10.586;2023-04-07T14:29:28;28.20;16.40
38183;DHT22;23991;52.430;10.586;2023-04-07T14:31:53;27.90;17.10
38183;DHT22;23991;52.430;10.586;2023-04-07T14:34:19;27.90;17.30
38183;DHT22;23991;52.430;10.586;2023-04-07T14:36:55;28.20;17.20
38183;DHT22;23991;52.430;10.586;2023-04-07T14:39:22;28.00;17.60
38183;DHT22;23991;52.430;10.586;2023-04-07T14:41:48;28.20;17.50
38183;DHT22;23991;52.430;10.586;2023-04-07T14:51:12;26.90;17.90
38183;DHT22;23991;52.430;10.586;2023-04-07T15:00:19;25.70;18.70
38183;DHT22;23991;52.430;10.586;2023-04-07T15:02:45;25.50;19.00
38183;DHT22;23991;52.430;10.586;2023-04-07T15:05:11;24.90;19.40
38183;DHT22;23991;52.430;10.586;2023-04-07T15:07:37;24.90;20.00
38183;DHT22;23991;52.430;10.586;2023-04-07T15:10:06;24.50;20.10
38183;DHT22;23991;52.430;10.586;2023-04-07T15:12:31;23.90;20.90
38183;DHT22;23991;52.430;10.586;2023-04-07T15:14:58;24.00;20.90
38183;DHT22;23991;52.430;10.586;2023-04-07T15:17:26;24.10;20.90
38183;DHT22;23991;52.430;10.586;2023-04-07T15:19:51;24.30;21.00
38183;DHT22;23991;52.430;10.586;2023-04-07T15:22:20;24.20;20.70
38183;DHT22;23991;52.430;10.586;2023-04-07T15:31:33;23.50;21.30
38183;DHT22;23991;52.430;10.586;2023-04-07T15:33:59;23.30;22.40
38183;DHT22;23991;52.430;10.586;2023-04-07T15:36:25;23.20;22.70
38183;DHT22;23991;52.430;10.586;2023-04-07T15:38:51;23.10;22.70
38183;DHT22;23991;52.430;10.586;2023-04-07T15:41:17;23.20;22.40
38183;DHT22;23991;52.430;10.586;2023-04-07T15:43:47;22.90;22.70
38183;DHT22;23991;52.430;10.586;2023-04-07T15:46:14;22.90;22.50
38183;DHT22;23991;52.430;10.586;2023-04-07T15:48:41;22.90;22.60
38183;DHT22;23991;52.430;10.586;2023-04-07T15:51:07;22.80;22.70
38183;DHT22;23991;52.430;10.586;2023-04-07T15:53:33;22.80;22.70
38183;DHT22;23991;52.430;10.586;2023-04-07T15:55:58;22.70;22.30
38183;DHT22;23991;52.430;10.586;2023-04-07T15:58:24;22.50;22.60
38183;DHT22;23991;52.430;10.586;2023-04-07T16:00:49;22.50;22.60
38183;DHT22;23991;52.430;10.586;2023-04-07T16:03:15;22.30;23.00
38183;DHT22;23991;52.430;10.586;2023-04-07T16:05:41;22.40;22.80
38183;DHT22;23991;52.430;10.586;2023-04-07T16:08:06;22.20;23.10
38183;DHT22;23991;52.430;10.586;2023-04-07T16:10:32;22.30;22.90
38183;DHT22;23991;52.430;10.586;2023-04-07T16:12:57;21.80;23.50
38183;DHT22;23991;52.430;10.586;2023-04-07T16:15:23;21.80;23.70
38183;DHT22;23991;52.430;10.586;2023-04-07T16:17:48;21.70;23.60
38183;DHT22;23991;52.430;10.586;2023-04-07T16:20:14;21.40;24.20
38183;DHT22;23991;52.430;10.586;2023-04-07T16:22:45;21.00;24.80
38183;DHT22;23991;52.430;10.586;2023-04-07T16:25:16;20.80;25.30
38183;DHT22;23991;52.430;10.586;2023-04-07T16:27:43;20.40;26.00
38183;DHT22;23991;52.430;10.586;2023-04-07T16:30:10;20.50;25.50
38183;DHT22;23991;52.430;10.586;2023-04-07T16:32:36;20.20;25.70
38183;DHT22;23991;52.430;10.586;2023-04-07T16:35:02;20.20;25.90
38183;DHT22;23991;52.430;10.586;2023-04-07T16:37:27;19.80;26.60
38183;DHT22;23991;52.430;10.586;2023-04-07T16:39:55;20.00;26.60
38183;DHT22;23991;52.430;10.586;2023-04-07T16:42:25;19.70;27.00
38183;DHT22;23991;52.430;10.586;2023-04-07T16:45:07;19.80;26.70
38183;DHT22;23991;52.430;10.586;2023-04-07T16:47:32;19.50;26.60
38183;DHT22;23991;52.430;10.586;2023-04-07T16:49:58;19.30;26.60
38183;DHT22;23991;52.430;10.586;2023-04-07T16:52:24;19.30;26.80
38183;DHT22;23991;52.430;10.586;2023-04-07T16:54:52;19.10;26.70
38183;DHT22;23991;52.430;10.586;2023-04-07T16:57:18;19.00;27.00
38183;DHT22;23991;52.430;10.586;2023-04-07T16:59:44;19.00;27.00
38183;DHT22;23991;52.430;10.586;2023-04-07T17:02:11;18.80;27.40
38183;DHT22;23991;52.430;10.586;2023-04-07T17:04:40;18.70;27.70
38183;DHT22;23991;52.430;10.586;2023-04-07T17:20:34;17.90;27.40
38183;DHT22;23991;52.430;10.586;2023-04-07T17:29:44;17.90;28.30
38183;DHT22;23991;52.430;10.586;2023-04-07T17:52:11;17.00;32.30
38183;DHT22;23991;52.430;10.586;2023-04-07T17:54:38;17.00;32.50
38183;DHT22;23991;52.430;10.586;2023-04-07T17:57:03;16.80;33.00
38183;DHT22;23991;52.430;10.586;2023-04-07T17:59:30;16.80;33.50
38183;DHT22;23991;52.430;10.586;2023-04-07T18:01:59;16.70;33.90
38183;DHT22;23991;52.430;10.586;2023-04-07T18:04:24;16.50;34.60
38183;DHT22;23991;52.430;10.586;2023-04-07T18:07:22;16.30;35.20
38183;DHT22;23991;52.430;10.586;2023-04-07T18:09:56;16.20;35.40
38183;DHT22;23991;52.430;10.586;2023-04-07T19:09:46;12.80;50.30
38183;DHT22;23991;52.430;10.586;2023-04-07T19:59:03;11.20;56.40
38183;DHT22;23991;52.430;10.586;2023-04-07T22:42:31;8.60;70.30
38183;DHT22;23991;52.430;10.586;2023-04-07T23:42:15;8.10;75.00
38183;DHT22;23991;52.430;10.586;2023-04-07T23:44:41;8.00;75.30
38183;DHT22;23991;52.430;10.586;2023-04-07T23:47:06;8.00;75.40
38183;DHT22;23991;52.430;10.586;2023-04-07T23:49:35;8.00;75.20
38183;DHT22;23991;52.430;10.586;2023-04-07T23:52:00;8.10;75.40
38183;DHT22;23991;52.430;10.586;2023-04-07T23:54:29;8.00;75.80
38183;DHT22;23991;52.430;10.586;2023-04-07T23:56:58;8.00;76.00
38183;DHT22;23991;52.430;10.586;2023-04-07T23:59:24;8.00;76.20
